createdAt,value
2022-08-22T00:00:13.345Z,101721.63
2022-08-22T00:02:46.809Z,101703.00
2022-08-22T00:03:00.571Z,101700.59
2022-08-22T00:03:00.571Z,101680.75
2022-08-22T00:03:12.286Z,101690.69
2022-08-22T00:03:15.046Z,101728.59
2022-08-22T00:05:30.838Z,101726.72
2022-08-22T00:07:50.692Z,101723.13
2022-08-22T00:10:31.433Z,101729.34
2022-08-22T00:12:42.685Z,101724.91
2022-08-22T00:14:58.315Z,101730.41
2022-08-22T00:17:22.883Z,101730.66
2022-08-22T00:19:31.718Z,101730.06
2022-08-22T00:21:44.800Z,101731.94
2022-08-22T00:24:04.835Z,101725.59
2022-08-22T00:26:15.816Z,101722.84
2022-08-22T00:28:17.309Z,101730.78
2022-08-22T00:30:19.750Z,101727.19
2022-08-22T00:32:32.561Z,101729.78
2022-08-22T00:34:51.153Z,101728.13
2022-08-22T00:37:19.121Z,101735.56
2022-08-22T00:39:31.500Z,101727.75
2022-08-22T00:42:08.127Z,101732.25
2022-08-22T00:44:32.326Z,101725.94
2022-08-22T00:46:57.719Z,101730.38
2022-08-22T00:49:11.191Z,101725.94
2022-08-22T00:51:25.078Z,101715.34
2022-08-22T00:53:54.305Z,101717.22
2022-08-22T00:56:18.223Z,101721.84
2022-08-22T00:58:42.925Z,101718.38
2022-08-22T01:00:58.839Z,101716.63
2022-08-22T01:03:09.746Z,101721.25
2022-08-22T01:05:28.241Z,101722.25
2022-08-22T01:07:38.174Z,101722.47
2022-08-22T01:09:49.495Z,101722.81
2022-08-22T01:12:05.928Z,101723.09
2022-08-22T01:14:34.622Z,101727.63
2022-08-22T01:16:36.752Z,101727.72
2022-08-22T01:18:56.519Z,101729.50
2022-08-22T01:21:44.821Z,101727.91
2022-08-22T01:24:10.742Z,101733.59
2022-08-22T01:26:44.780Z,101728.47
2022-08-22T01:29:13.647Z,101730.34
2022-08-22T01:31:44.455Z,101721.47
2022-08-22T01:34:23.634Z,101726.88
2022-08-22T01:36:38.624Z,101725.22
2022-08-22T01:39:10.655Z,101724.34
2022-08-22T01:41:17.177Z,101726.22
2022-08-22T01:43:58.703Z,101726.34
2022-08-22T01:46:01.511Z,101729.13
2022-08-22T01:48:20.039Z,101727.47
2022-08-22T01:50:25.080Z,101721.38
2022-08-22T01:52:50.891Z,101729.47
2022-08-22T01:55:24.524Z,101729.84
2022-08-22T01:57:26.373Z,101729.97
2022-08-22T01:59:42.434Z,101724.63
2022-08-22T02:01:49.967Z,101719.16
2022-08-22T02:04:02.544Z,101728.91
2022-08-22T02:06:35.951Z,101727.97
2022-08-22T02:09:01.962Z,101731.56
2022-08-22T02:11:10.653Z,101730.84
2022-08-22T02:13:12.894Z,101735.44
2022-08-22T02:15:14.339Z,101730.22
2022-08-22T02:17:50.779Z,101724.09
2022-08-22T02:20:01.702Z,101724.22
2022-08-22T02:22:31.132Z,101724.22
2022-08-22T02:24:41.628Z,101729.69
2022-08-22T02:27:05.060Z,101722.69
2022-08-22T02:29:12.616Z,101725.41
2022-08-22T02:31:17.135Z,101719.34
2022-08-22T02:33:34.324Z,101724.84
2022-08-22T02:35:59.882Z,101712.75
2022-08-22T02:38:13.341Z,101724.50
2022-08-22T02:41:10.741Z,101731.69
2022-08-22T02:43:27.364Z,101734.50
2022-08-22T02:45:35.797Z,101724.81
2022-08-22T02:48:03.729Z,101727.47
2022-08-22T02:50:05.841Z,101723.94
2022-08-22T02:52:26.290Z,101716.75
2022-08-22T02:54:45.936Z,101733.69
2022-08-22T02:56:50.771Z,101729.34
2022-08-22T02:59:18.697Z,101726.81
2022-08-22T03:01:34.958Z,101732.41
2022-08-22T03:03:41.069Z,101730.97
2022-08-22T03:05:45.508Z,101730.13
2022-08-22T03:08:03.441Z,101728.31
2022-08-22T03:10:18.558Z,101730.03
2022-08-22T03:12:41.779Z,101733.56
2022-08-22T03:14:54.558Z,101730.03
2022-08-22T03:17:05.911Z,101731.88
2022-08-22T03:19:22.883Z,101729.38
2022-08-22T03:21:28.064Z,101728.75
2022-08-22T03:23:39.003Z,101726.22
2022-08-22T03:26:08.081Z,101728.94
2022-08-22T03:28:14.508Z,101733.28
2022-08-22T03:30:56.236Z,101728.66
2022-08-22T03:33:20.156Z,101724.00
2022-08-22T03:35:43.626Z,101718.59
2022-08-22T03:37:45.357Z,101727.41
2022-08-22T03:39:59.822Z,101719.41
2022-08-22T03:42:16.288Z,101721.19
2022-08-22T03:44:17.728Z,101718.59
2022-08-22T03:46:41.077Z,101716.31
2022-08-22T03:49:33.218Z,101720.16
2022-08-22T03:51:47.065Z,101723.69
2022-08-22T03:53:54.615Z,101726.22
2022-08-22T03:56:31.236Z,101723.75
2022-08-22T03:59:09.954Z,101724.78
2022-08-22T04:01:36.325Z,101726.63
2022-08-22T04:04:02.674Z,101726.59
2022-08-22T04:06:18.991Z,101727.53
2022-08-22T04:08:29.340Z,101732.94
2022-08-22T04:11:03.856Z,101733.88
2022-08-22T04:13:37.625Z,101729.47
2022-08-22T04:16:03.875Z,101726.97
2022-08-22T04:18:17.443Z,101735.91
2022-08-22T04:20:40.593Z,101739.56
2022-08-22T04:23:14.946Z,101734.34
2022-08-22T04:25:25.497Z,101731.69
2022-08-22T04:27:43.666Z,101729.94
2022-08-22T04:30:03.600Z,101737.88
2022-08-22T04:32:14.648Z,101735.16
2022-08-22T04:34:28.429Z,101730.69
2022-08-22T04:36:42.300Z,101732.44
2022-08-22T04:39:06.883Z,101727.09
2022-08-22T04:41:12.284Z,101735.03
2022-08-22T04:43:19.836Z,101735.78
2022-08-22T04:46:08.066Z,101740.19
2022-08-22T04:48:26.307Z,101741.88
2022-08-22T04:50:50.430Z,101751.50
2022-08-22T04:53:17.548Z,101751.41
2022-08-22T04:55:46.276Z,101754.06
2022-08-22T04:58:06.487Z,101755.75
2022-08-22T05:00:11.308Z,101752.88
2022-08-22T05:02:21.417Z,101755.13
2022-08-22T05:04:31.816Z,101747.66
2022-08-22T05:06:40.087Z,101754.34
2022-08-22T05:08:43.721Z,101746.03
2022-08-22T05:10:49.206Z,101748.38
2022-08-22T05:13:03.081Z,101750.72
2022-08-22T05:15:22.989Z,101742.59
2022-08-22T05:17:29.314Z,101746.91
2022-08-22T05:19:34.735Z,101750.25
2022-08-22T05:21:40.466Z,101748.25
2022-08-22T05:23:48.198Z,101751.59
2022-08-22T05:25:54.398Z,101744.19
2022-08-22T05:28:17.963Z,101750.19
2022-08-22T05:30:25.382Z,101755.41
2022-08-22T05:32:38.029Z,101755.09
2022-08-22T05:34:42.441Z,101754.06
2022-08-22T05:36:48.757Z,101750.25
2022-08-22T05:39:08.738Z,101749.97
2022-08-22T05:41:21.700Z,101757.59
2022-08-22T05:43:25.510Z,101757.31
2022-08-22T05:45:29.261Z,101761.44
2022-08-22T05:47:41.052Z,101759.44
2022-08-22T05:49:48.516Z,101758.31
2022-08-22T05:52:11.844Z,101757.16
2022-08-22T05:54:20.098Z,101761.44
2022-08-22T05:56:34.670Z,101766.50
2022-08-22T05:58:38.860Z,101760.84
2022-08-22T06:00:43.985Z,101767.66
2022-08-22T06:03:03.376Z,101766.44
2022-08-22T06:05:11.391Z,101769.78
2022-08-22T06:07:20.534Z,101766.84
2022-08-22T06:09:46.379Z,101770.91
2022-08-22T06:11:58.452Z,101771.47
2022-08-22T06:14:17.887Z,101777.38
2022-08-22T06:16:28.053Z,101773.63
2022-08-22T06:18:31.545Z,101774.19
2022-08-22T06:21:20.685Z,101773.78
2022-08-22T06:23:27.853Z,101775.34
2022-08-22T06:25:39.378Z,101777.72
2022-08-22T06:27:42.688Z,101777.34
2022-08-22T06:29:49.322Z,101786.00
2022-08-22T06:31:51.237Z,101790.19
2022-08-22T06:34:28.601Z,101785.41
2022-08-22T06:36:32.277Z,101782.53
2022-08-22T06:39:02.447Z,101787.59
2022-08-22T06:41:08.056Z,101788.22
2022-08-22T06:43:12.056Z,101785.22
2022-08-22T06:45:27.614Z,101792.97
2022-08-22T06:47:33.371Z,101793.59
2022-08-22T06:49:37.246Z,101791.38
2022-08-22T06:51:39.615Z,101799.16
2022-08-22T06:53:54.713Z,101790.84
2022-08-22T06:55:59.396Z,101801.31
2022-08-22T06:58:24.700Z,101791.13
2022-08-22T07:00:27.014Z,101798.06
2022-08-22T07:02:38.897Z,101797.75
2022-08-22T07:04:40.478Z,101793.94
2022-08-22T07:06:46.274Z,101799.06
2022-08-22T07:08:54.076Z,101805.03
2022-08-22T07:11:08.871Z,101804.84
2022-08-22T07:13:16.295Z,101810.84
2022-08-22T07:15:35.446Z,101808.78
2022-08-22T07:17:40.616Z,101798.75
2022-08-22T07:19:54.167Z,101810.00
2022-08-22T07:21:57.287Z,101798.16
2022-08-22T07:24:01.287Z,101798.75
2022-08-22T07:26:22.370Z,101805.59
2022-08-22T07:28:51.280Z,101794.72
2022-08-22T07:31:07.128Z,101806.09
2022-08-22T07:33:25.752Z,101806.69
2022-08-22T07:35:35.465Z,101813.63
2022-08-22T07:37:55.484Z,101805.22
2022-08-22T07:40:28.235Z,101812.16
2022-08-22T07:42:48.055Z,101801.22
2022-08-22T07:45:15.508Z,101800.19
2022-08-22T07:47:26.236Z,101799.06
2022-08-22T07:49:50.390Z,101810.41
2022-08-22T07:52:04.051Z,101815.50
2022-08-22T07:54:11.516Z,101810.81
2022-08-22T07:56:19.618Z,101818.50
2022-08-22T07:58:25.198Z,101814.50
2022-08-22T08:00:29.536Z,101816.94
2022-08-22T08:02:31.342Z,101812.16
2022-08-22T08:04:39.976Z,101809.88
2022-08-22T08:06:41.953Z,101810.47
2022-08-22T08:08:44.781Z,101809.25
2022-08-22T08:10:50.715Z,101803.63
2022-08-22T08:13:02.758Z,101802.47
2022-08-22T08:15:09.259Z,101793.56
2022-08-22T08:17:33.009Z,101799.53
2022-08-22T08:19:38.603Z,101804.44
2022-08-22T08:21:46.974Z,101803.19
2022-08-22T08:23:49.451Z,101805.50
2022-08-22T08:26:12.243Z,101800.75
2022-08-22T08:28:33.212Z,101800.47
2022-08-22T08:30:43.202Z,101797.69
2022-08-22T08:32:57.592Z,101800.22
2022-08-22T08:35:25.593Z,101788.31
2022-08-22T08:37:36.523Z,101786.66
2022-08-22T08:39:43.664Z,101781.09
2022-08-22T08:42:00.305Z,101783.69
2022-08-22T08:44:07.794Z,101786.97
2022-08-22T08:46:25.479Z,101782.06
2022-08-22T08:49:06.289Z,101782.53
2022-08-22T08:51:45.730Z,101772.34
2022-08-22T08:54:12.143Z,101781.00
2022-08-22T08:56:20.053Z,101780.59
2022-08-22T08:58:21.527Z,101773.91
2022-08-22T09:00:42.929Z,101770.25
2022-08-22T09:02:53.472Z,101775.34
2022-08-22T09:05:37.393Z,101767.06
2022-08-22T09:08:14.056Z,101773.81
2022-08-22T09:10:27.437Z,101768.13
2022-08-22T09:12:56.512Z,101762.16
2022-08-22T09:15:37.565Z,101765.44
2022-08-22T09:17:55.892Z,101765.13
2022-08-22T09:20:24.491Z,101764.84
2022-08-22T09:23:10.975Z,101762.81
2022-08-22T09:25:23.576Z,101763.41
2022-08-22T09:27:29.508Z,101758.88
2022-08-22T09:29:54.557Z,101755.97
2022-08-22T09:32:24.769Z,101751.34
2022-08-22T09:34:37.190Z,101759.22
2022-08-22T09:37:08.981Z,101743.84
2022-08-22T09:39:15.686Z,101752.13
2022-08-22T09:41:44.928Z,101747.09
2022-08-22T09:43:52.590Z,101742.81
2022-08-22T09:46:09.476Z,101736.13
2022-08-22T09:48:14.642Z,101733.13
2022-08-22T09:50:33.251Z,101734.25
2022-08-22T09:53:10.038Z,101733.34
2022-08-22T09:55:35.010Z,101730.88
2022-08-22T09:58:05.720Z,101724.09
2022-08-22T10:00:13.548Z,101735.03
2022-08-22T10:02:45.856Z,101724.66
2022-08-22T10:05:40.572Z,101717.97
2022-08-22T10:08:05.213Z,101718.63
2022-08-22T10:10:21.528Z,101724.00
2022-08-22T10:13:01.517Z,101726.38
2022-08-22T10:15:28.695Z,101724.09
2022-08-22T10:17:41.034Z,101718.06
2022-08-22T10:19:58.811Z,101710.97
2022-08-22T10:22:37.050Z,101707.41
2022-08-22T10:24:51.774Z,101715.38
2022-08-22T10:26:58.025Z,101706.28
2022-08-22T10:29:10.684Z,101699.72
2022-08-22T10:31:59.267Z,101711.13
2022-08-22T10:34:04.894Z,101702.91
2022-08-22T10:36:49.831Z,101701.19
2022-08-22T10:38:54.651Z,101703.06
2022-08-22T10:41:09.638Z,101702.41
2022-08-22T10:43:19.634Z,101698.34
2022-08-22T10:45:37.051Z,101697.63
2022-08-22T10:47:50.718Z,101693.72
2022-08-22T10:49:56.703Z,101694.13
2022-08-22T10:52:15.900Z,101689.38
2022-08-22T10:54:40.637Z,101688.91
2022-08-22T10:57:03.587Z,101690.94
2022-08-22T10:59:32.806Z,101688.72
2022-08-22T11:01:45.304Z,101699.16
2022-08-22T11:04:01.012Z,101693.94
2022-08-22T11:06:12.790Z,101699.81
2022-08-22T11:08:31.428Z,101700.94
2022-08-22T11:10:54.650Z,101692.09
2022-08-22T11:13:14.337Z,101688.47
2022-08-22T11:15:42.551Z,101694.81
2022-08-22T11:17:59.480Z,101688.91
2022-08-22T11:20:30.046Z,101685.28
2022-08-22T11:23:16.458Z,101682.72
2022-08-22T11:25:36.031Z,101689.53
2022-08-22T11:27:47.738Z,101687.22
2022-08-22T11:30:05.523Z,101679.59
2022-08-22T11:32:37.786Z,101679.34
2022-08-22T11:35:17.708Z,101682.78
2022-08-22T11:37:43.306Z,101677.41
2022-08-22T11:40:04.668Z,101681.03
2022-08-22T11:42:29.644Z,101671.22
2022-08-22T11:44:53.788Z,101675.66
2022-08-22T11:46:57.320Z,101683.28
2022-08-22T11:49:16.509Z,101682.81
2022-08-22T11:51:41.636Z,101679.59
2022-08-22T11:54:04.159Z,101676.25
2022-08-22T11:56:37.728Z,101677.63
2022-08-22T11:59:17.625Z,101683.03
2022-08-22T12:01:36.329Z,101681.28
2022-08-22T12:03:53.978Z,101680.53
2022-08-22T12:06:09.181Z,101675.25
2022-08-22T12:08:30.877Z,101674.03
2022-08-22T12:10:37.540Z,101670.72
2022-08-22T12:13:01.210Z,101677.97
2022-08-22T12:15:24.640Z,101671.97
2022-08-22T12:18:01.918Z,101670.97
2022-08-22T12:20:34.163Z,101665.44
2022-08-22T12:23:01.122Z,101664.56
2022-08-22T12:25:10.692Z,101659.03
2022-08-22T12:27:29.133Z,101660.88
2022-08-22T12:30:01.538Z,101655.97
2022-08-22T12:32:27.566Z,101659.41
2022-08-22T12:34:38.365Z,101655.47
2022-08-22T12:37:13.724Z,101652.50
2022-08-22T12:39:24.608Z,101650.31
2022-08-22T12:41:46.776Z,101644.03
2022-08-22T12:44:00.827Z,101642.78
2022-08-22T12:46:13.123Z,101643.66
2022-08-22T12:48:54.906Z,101645.03
2022-08-22T12:51:21.081Z,101639.34
2022-08-22T12:53:56.052Z,101638.84
2022-08-22T12:56:03.797Z,101640.09
2022-08-22T12:58:41.129Z,101635.78
2022-08-22T13:00:48.795Z,101637.00
2022-08-22T13:02:55.052Z,101625.13
2022-08-22T13:05:09.065Z,101628.66
2022-08-22T13:07:24.212Z,101627.41
2022-08-22T13:09:28.905Z,101621.72
2022-08-22T13:11:39.628Z,101627.72
2022-08-22T13:13:56.163Z,101626.41
2022-08-22T13:16:05.354Z,101620.06
2022-08-22T13:18:30.361Z,101618.94
2022-08-22T13:20:43.343Z,101619.84
2022-08-22T13:22:45.882Z,101616.53
2022-08-22T13:24:56.729Z,101609.19
2022-08-22T13:27:06.427Z,101614.22
2022-08-22T13:29:26.848Z,101613.19
2022-08-22T13:31:32.139Z,101612.53
2022-08-22T13:33:47.003Z,101606.16
2022-08-22T13:36:16.678Z,101612.84
2022-08-22T13:38:28.169Z,101613.69
2022-08-22T13:40:32.667Z,101602.44
2022-08-22T13:42:43.376Z,101601.09
2022-08-22T13:44:54.176Z,101600.78
2022-08-22T13:47:14.162Z,101601.38
2022-08-22T13:49:36.585Z,101600.09
2022-08-22T13:52:03.272Z,101600.47
2022-08-22T13:54:40.255Z,101604.69
2022-08-22T13:56:51.806Z,101603.78
2022-08-22T13:58:59.200Z,101605.94
2022-08-22T14:01:25.548Z,101600.13
2022-08-22T14:03:48.756Z,101601.75
2022-08-22T14:05:55.714Z,101603.94
2022-08-22T14:08:14.987Z,101595.91
2022-08-22T14:10:26.153Z,101599.06
2022-08-22T14:12:50.936Z,101597.22
2022-08-22T14:14:59.870Z,101598.41
2022-08-22T14:17:02.493Z,101602.31
2022-08-22T14:19:12.341Z,101597.47
2022-08-22T14:21:27.367Z,101594.56
2022-08-22T14:23:29.604Z,101595.13
2022-08-22T14:25:38.968Z,101595.53
2022-08-22T14:28:09.233Z,101594.81
2022-08-22T14:30:13.972Z,101597.47
2022-08-22T14:32:23.353Z,101594.78
2022-08-22T14:34:31.953Z,101593.06
2022-08-22T14:36:44.421Z,101589.22
2022-08-22T14:38:56.305Z,101590.94
2022-08-22T14:41:05.447Z,101585.66
2022-08-22T14:43:28.559Z,101587.41
2022-08-22T14:45:40.602Z,101569.53
2022-08-22T14:48:29.630Z,101574.41
2022-08-22T14:50:38.751Z,101570.25
2022-08-22T14:52:45.566Z,101565.53
2022-08-22T14:54:47.643Z,101567.84
2022-08-22T14:56:53.221Z,101561.66
2022-08-22T14:59:05.682Z,101567.25
2022-08-22T15:01:11.566Z,101551.56
2022-08-22T15:03:24.927Z,101547.00
2022-08-22T15:05:26.468Z,101555.81
2022-08-22T15:07:32.426Z,101555.63
2022-08-22T15:09:40.429Z,101545.25
2022-08-22T15:11:48.168Z,101554.66
2022-08-22T15:13:53.674Z,101554.88
2022-08-22T15:16:01.528Z,101550.44
2022-08-22T15:18:28.183Z,101556.16
2022-08-22T15:20:45.378Z,101539.09
2022-08-22T15:22:52.855Z,101549.66
2022-08-22T15:25:00.132Z,101550.31
2022-08-22T15:27:02.508Z,101542.41
2022-08-22T15:29:18.383Z,101542.81
2022-08-22T15:31:22.412Z,101546.00
2022-08-22T15:33:32.361Z,101535.78
2022-08-22T15:35:38.822Z,101530.72
2022-08-22T15:38:02.888Z,101537.31
2022-08-22T15:40:27.437Z,101527.94
2022-08-22T15:42:37.541Z,101534.72
2022-08-22T15:44:44.293Z,101523.44
2022-08-22T15:46:52.195Z,101529.78
2022-08-22T15:49:10.590Z,101527.69
2022-08-22T15:51:30.737Z,101519.56
2022-08-22T15:54:16.312Z,101521.41
2022-08-22T15:56:39.533Z,101528.00
2022-08-22T15:59:26.309Z,101530.50
2022-08-22T16:01:41.240Z,101523.44
2022-08-22T16:03:55.908Z,101519.16
2022-08-22T16:06:07.477Z,101514.66
2022-08-22T16:08:14.407Z,101516.25
2022-08-22T16:10:22.008Z,101512.56
2022-08-22T16:12:31.874Z,101513.53
2022-08-22T16:14:33.481Z,101514.88
2022-08-22T16:16:50.116Z,101511.88
2022-08-22T16:18:51.581Z,101513.47
2022-08-22T16:20:54.389Z,101507.06
2022-08-22T16:22:58.821Z,101513.25
2022-08-22T16:25:03.046Z,101511.84
2022-08-22T16:27:24.247Z,101517.41
2022-08-22T16:29:41.556Z,101508.31
2022-08-22T16:31:46.025Z,101504.75
2022-08-22T16:33:47.873Z,101503.63
2022-08-22T16:36:14.119Z,101504.34
2022-08-22T16:38:26.498Z,101508.06
2022-08-22T16:40:28.166Z,101502.78
2022-08-22T16:42:52.972Z,101500.91
2022-08-22T16:45:05.421Z,101511.75
2022-08-22T16:47:14.259Z,101502.19
2022-08-22T16:49:32.183Z,101506.59
2022-08-22T16:51:34.023Z,101500.72
2022-08-22T16:53:35.467Z,101509.13
2022-08-22T16:56:06.692Z,101501.97
2022-08-22T16:58:22.520Z,101498.94
2022-08-22T17:00:36.289Z,101501.78
2022-08-22T17:02:52.939Z,101508.19
2022-08-22T17:05:22.856Z,101502.19
2022-08-22T17:07:30.125Z,101497.16
2022-08-22T17:09:53.150Z,101498.16
2022-08-22T17:12:04.328Z,101503.22
2022-08-22T17:14:14.117Z,101506.06
2022-08-22T17:16:21.655Z,101501.38
2022-08-22T17:18:57.371Z,101508.25
2022-08-22T17:21:15.403Z,101509.66
2022-08-22T17:23:48.001Z,101499.94
2022-08-22T17:26:10.285Z,101505.84
2022-08-22T17:28:23.852Z,101505.34
2022-08-22T17:30:36.859Z,101500.19
2022-08-22T17:33:10.416Z,101506.00
2022-08-22T17:35:30.155Z,101497.28
2022-08-22T17:37:48.783Z,101495.44
2022-08-22T17:40:48.716Z,101504.66
2022-08-22T17:42:50.188Z,101502.47
2022-08-22T17:45:07.133Z,101503.47
2022-08-22T17:47:16.142Z,101502.69
2022-08-22T17:49:27.530Z,101500.13
2022-08-22T17:51:59.578Z,101497.53
2022-08-22T17:54:12.573Z,101498.66
2022-08-22T17:56:24.291Z,101498.91
2022-08-22T17:58:31.627Z,101507.28
2022-08-22T18:00:53.784Z,101504.09
2022-08-22T18:02:59.168Z,101508.03
2022-08-22T18:05:20.316Z,101505.56
2022-08-22T18:07:29.749Z,101512.97
2022-08-22T18:09:39.211Z,101514.66
2022-08-22T18:12:04.852Z,101510.59
2022-08-22T18:14:49.148Z,101523.59
2022-08-22T18:16:53.839Z,101526.06
2022-08-22T18:19:16.953Z,101523.84
2022-08-22T18:21:25.714Z,101524.97
2022-08-22T18:23:36.308Z,101527.06
2022-08-22T18:25:56.900Z,101523.84
2022-08-22T18:28:06.450Z,101529.63
2022-08-22T18:30:11.063Z,101531.84
2022-08-22T18:32:20.980Z,101539.31
2022-08-22T18:34:29.958Z,101535.09
2022-08-22T18:36:38.956Z,101532.75
2022-08-22T18:39:06.876Z,101530.66
2022-08-22T18:41:34.671Z,101536.28
2022-08-22T18:43:41.702Z,101536.00
2022-08-22T18:45:45.971Z,101540.78
2022-08-22T18:47:57.173Z,101535.50
2022-08-22T18:50:02.555Z,101534.03
2022-08-22T18:52:10.044Z,101539.97
2022-08-22T18:54:11.502Z,101539.34
2022-08-22T18:56:24.838Z,101539.47
2022-08-22T18:58:33.546Z,101544.25
2022-08-22T19:01:00.010Z,101551.84
2022-08-22T19:03:04.384Z,101553.03
2022-08-22T19:05:19.561Z,101556.09
2022-08-22T19:07:53.084Z,101550.94
2022-08-22T19:10:27.670Z,101552.03
2022-08-22T19:12:35.594Z,101555.06
2022-08-22T19:15:09.321Z,101558.00
2022-08-22T19:17:13.919Z,101552.94
2022-08-22T19:20:12.128Z,101556.91
2022-08-22T19:22:19.496Z,101563.59
2022-08-22T19:24:26.895Z,101561.13
2022-08-22T19:26:36.747Z,101564.06
2022-08-22T19:28:38.355Z,101564.41
2022-08-22T19:30:53.162Z,101569.91
2022-08-22T19:33:03.133Z,101560.84
2022-08-22T19:35:35.217Z,101556.53
2022-08-22T19:37:55.529Z,101562.78
2022-08-22T19:40:00.319Z,101552.97
2022-08-22T19:42:01.959Z,101557.63
2022-08-22T19:44:03.883Z,101559.78
2022-08-22T19:46:11.945Z,101558.19
2022-08-22T19:48:14.622Z,101561.09
2022-08-22T19:50:16.163Z,101561.09
2022-08-22T19:52:24.863Z,101559.50
2022-08-22T19:54:28.330Z,101561.56
2022-08-22T19:56:41.960Z,101558.75
2022-08-22T19:59:25.649Z,101560.47
2022-08-22T20:01:40.084Z,101554.31
2022-08-22T20:03:55.984Z,101551.81
2022-08-22T20:06:43.628Z,101552.91
2022-08-22T20:09:10.573Z,101544.41
2022-08-22T20:11:27.049Z,101550.88
2022-08-22T20:13:32.988Z,101549.91
2022-08-22T20:16:00.023Z,101547.53
2022-08-22T20:20:24.059Z,101538.94
2022-08-22T20:22:39.104Z,101536.22
2022-08-22T20:25:01.605Z,101541.84
2022-08-22T20:27:14.603Z,101530.94
2022-08-22T20:29:17.472Z,101525.78
2022-08-22T20:31:23.856Z,101522.34
2022-08-22T20:33:31.794Z,101532.38
2022-08-22T20:35:33.231Z,101528.03
2022-08-22T20:38:05.246Z,101536.09
2022-08-22T20:40:57.057Z,101533.53
2022-08-22T20:42:50.283Z,101531.38
2022-08-22T20:44:54.066Z,101528.13
2022-08-22T20:47:07.602Z,101537.28
2022-08-22T20:49:21.016Z,101546.44
2022-08-22T20:51:25.807Z,101546.22
2022-08-22T20:53:27.318Z,101541.28
2022-08-22T20:55:31.654Z,101544.72
2022-08-22T20:57:35.691Z,101542.91
2022-08-22T20:59:41.412Z,101539.22
2022-08-22T21:01:44.699Z,101541.16
2022-08-22T21:03:50.083Z,101544.06
2022-08-22T21:05:51.790Z,101538.91
2022-08-22T21:08:07.111Z,101538.25
2022-08-22T21:10:40.011Z,101538.69
2022-08-22T21:12:41.628Z,101542.84
2022-08-22T21:14:46.360Z,101539.41
2022-08-22T21:16:48.511Z,101538.66
2022-08-22T21:18:52.457Z,101543.16
2022-08-22T21:20:54.809Z,101545.75
2022-08-22T21:23:02.827Z,101537.69
2022-08-22T21:25:05.103Z,101538.84
2022-08-22T21:27:07.666Z,101543.47
2022-08-22T21:29:12.094Z,101535.41
2022-08-22T21:31:19.627Z,101534.75
2022-08-22T21:33:24.619Z,101542.94
2022-08-22T21:35:30.072Z,101539.56
2022-08-22T21:37:39.735Z,101537.19
2022-08-22T21:39:48.017Z,101539.13
2022-08-22T21:42:21.837Z,101545.56
2022-08-22T21:44:35.835Z,101548.03
2022-08-22T21:46:37.398Z,101544.38
2022-08-22T21:48:58.386Z,101543.72
2022-08-22T21:51:21.819Z,101546.47
2022-08-22T21:53:27.915Z,101541.59
2022-08-22T21:55:38.402Z,101545.69
2022-08-22T21:57:39.971Z,101558.25
2022-08-22T21:59:51.525Z,101559.13
2022-08-22T22:02:31.160Z,101561.91
2022-08-22T22:04:32.934Z,101561.25
2022-08-22T22:06:36.866Z,101555.22
2022-08-22T22:08:38.365Z,101561.47
2022-08-22T22:10:42.315Z,101558.97
2022-08-22T22:12:45.549Z,101561.88
2022-08-22T22:14:51.214Z,101558.53
2022-08-22T22:16:52.723Z,101557.84
2022-08-22T22:18:55.262Z,101556.13
2022-08-22T22:20:57.478Z,101566.41
2022-08-22T22:22:59.161Z,101567.25
2022-08-22T22:25:00.662Z,101564.78
2022-08-22T22:27:03.513Z,101559.59
2022-08-22T22:29:05.102Z,101559.00
2022-08-22T22:31:07.618Z,101568.88
2022-08-22T22:33:10.076Z,101562.28
2022-08-22T22:35:11.560Z,101561.63
2022-08-22T22:37:15.613Z,101569.78
2022-08-22T22:39:17.196Z,101570.75
2022-08-22T22:41:21.191Z,101568.34
2022-08-22T22:43:22.790Z,101569.97
2022-08-22T22:45:24.397Z,101575.63
2022-08-22T22:47:27.676Z,101564.03
2022-08-22T22:49:31.076Z,101580.25
2022-08-22T22:51:32.807Z,101577.75
2022-08-22T22:53:40.512Z,101574.47
2022-08-22T22:55:44.720Z,101576.13
2022-08-22T22:57:46.269Z,101572.16
2022-08-22T22:59:48.174Z,101571.09
2022-08-22T23:02:10.305Z,101566.97
2022-08-22T23:04:11.832Z,101570.44
2022-08-22T23:06:19.237Z,101579.28
2022-08-22T23:08:20.736Z,101566.97
2022-08-22T23:10:22.430Z,101570.25
2022-08-22T23:12:25.985Z,101572.66
2022-08-22T23:14:27.603Z,101580.63
2022-08-22T23:16:33.981Z,101581.38
2022-08-22T23:18:38.810Z,101582.91
2022-08-22T23:20:40.318Z,101589.16
2022-08-22T23:22:44.960Z,101590.78
2022-08-22T23:24:48.909Z,101582.91
2022-08-22T23:26:50.510Z,101588.28
2022-08-22T23:28:52.007Z,101583.59
2022-08-22T23:30:53.588Z,101587.34
2022-08-22T23:32:55.687Z,101585.13
2022-08-22T23:34:57.468Z,101589.72
2022-08-22T23:37:01.238Z,101587.91
2022-08-22T23:39:04.546Z,101585.31
2022-08-22T23:41:09.874Z,101585.59
2022-08-22T23:43:11.523Z,101586.06
2022-08-22T23:45:13.123Z,101589.44
2022-08-22T23:47:15.245Z,101591.25
2022-08-22T23:49:17.400Z,101588.56
2022-08-22T23:51:23.189Z,101590.31
2022-08-22T23:53:24.891Z,101592.03
2022-08-22T23:55:26.399Z,101589.16
2022-08-22T23:57:29.445Z,101586.56
2022-08-22T23:59:33.984Z,101585.69
